Time;durP1;ratioP1;P1;durP2;ratioP2;P2;SDS_P1;SDS_P2;PMS_P1;PMS_P2;Temp;Humidity;BMP_temperature;BMP_pressure;BME280_temperature;BME280_humidity;BME280_pressure;Samples;Min_cycle;Max_cycle;Signal;HPM_P1;HPM_P2
2024/03/24 00:02:04;;;;;;;;;;;;;;;;;;4936563;29;19915;-82
2024/03/24 00:04:30;;;;;;;;;;;;;;;;;;4937273;29;20008;-81
2024/03/24 00:06:57;;;;;;;;;;;;;;;;;;4937239;29;19957;-81
2024/03/24 00:09:23;;;;;;;;;;;;;;;;;;4936903;29;20005;-81
2024/03/24 00:11:49;;;;;;;;;;;;;;;;;;4922455;29;19958;-80
2024/03/24 00:14:15;;;;;;;;;;;;;;;;;;4923174;29;19946;-80
2024/03/24 00:16:41;;;;;;;;;;;;;;;;;;4936920;29;19949;-80
2024/03/24 00:19:06;;;;;;;;;;;;;;;;;;4936858;29;19926;-80
2024/03/24 00:21:32;;;;;;;;;;;;;;;;;;4933929;29;19950;-79
2024/03/24 00:24:01;;;;;;;;;;;;;;;;;;4936674;29;19938;-80
2024/03/24 00:26:27;;;;;;;;;;;;;;;;;;4930246;29;19918;-83
2024/03/24 00:28:53;;;;;;;;;;;;;;;;;;4937947;29;19922;-83
2024/03/24 00:31:19;;;;;;;;;;;;;;;;;;4933059;29;20009;-83
2024/03/24 00:33:45;;;;;;;;;;;;;;;;;;4936405;29;19954;-82
2024/03/24 00:36:11;;;;;;;;;;;;;;;;;;4936677;29;19941;-82
2024/03/24 00:38:37;;;;;;;;;;;;;;;;;;4936947;29;19966;-82
2024/03/24 00:41:02;;;;;;;;;;;;;;;;;;4918966;29;19921;-83
2024/03/24 00:43:28;;;;;;;;;;;;;;;;;;4931604;29;19986;-79
2024/03/24 00:45:54;;;;;;;;;;;;;;;;;;4929892;29;19954;-81
2024/03/24 00:48:20;;;;;;;;;;;;;;;;;;4924065;29;19958;-82
2024/03/24 00:50:46;;;;;;;;;;;;;;;;;;4928485;29;19946;-80
2024/03/24 00:53:12;;;;;;;;;;;;;;;;;;4933112;29;19918;-81
2024/03/24 00:55:38;;;;;;;;;;;;;;;;;;4934022;29;19915;-82
2024/03/24 00:58:04;;;;;;;;;;;;;;;;;;4938559;29;20351;-82
2024/03/24 01:00:30;;;;;;;;;;;;;;;;;;4936778;29;19993;-82
2024/03/24 01:02:56;;;;;;;;;;;;;;;;;;4936300;29;19918;-87
2024/03/24 01:05:22;;;;;;;;;;;;;;;;;;4937193;29;19979;-87
2024/03/24 01:07:48;;;;;;;;;;;;;;;;;;4940998;29;19914;-87
2024/03/24 01:10:14;;;;;;;;;;;;;;;;;;4941849;29;19919;-87
2024/03/24 01:12:42;;;;;;;;;;;;;;;;;;4934210;29;19986;-87
2024/03/24 01:15:08;;;;;;;;;;;;;;;;;;4940568;29;19915;-86
2024/03/24 01:17:34;;;;;;;;;;;;;;;;;;4945455;29;19922;-86
2024/03/24 01:20:01;;;;;;;;;;;;;;;;;;4940148;29;19915;-87
2024/03/24 01:22:28;;;;;;;;;;;;;;;;;;4937418;29;19962;-87
2024/03/24 01:24:57;;;;;;;;;;;;;;;;;;4946018;29;19946;-87
2024/03/24 01:27:23;;;;;;;;;;;;;;;;;;4946392;29;19918;-86
2024/03/24 01:29:49;;;;;;;;;;;;;;;;;;4940300;29;19911;-87
2024/03/24 01:32:16;;;;;;;;;;;;;;;;;;4942967;29;19940;-87
2024/03/24 01:34:42;;;;;;;;;;;;;;;;;;4945872;29;19914;-88
2024/03/24 01:37:08;;;;;;;;;;;;;;;;;;4943317;29;19918;-87
2024/03/24 01:39:34;;;;;;;;;;;;;;;;;;4923260;29;19921;-86
2024/03/24 01:42:00;;;;;;;;;;;;;;;;;;4941409;29;20358;-87
2024/03/24 01:44:26;;;;;;;;;;;;;;;;;;4936184;29;19921;-87
2024/03/24 01:46:52;;;;;;;;;;;;;;;;;;4935712;29;19911;-87
2024/03/24 01:49:18;;;;;;;;;;;;;;;;;;4942690;29;19917;-86
2024/03/24 01:51:44;;;;;;;;;;;;;;;;;;4933206;29;19915;-87
2024/03/24 01:54:10;;;;;;;;;;;;;;;;;;4917717;29;19954;-87
2024/03/24 01:56:36;;;;;;;;;;;;;;;;;;4930993;29;19915;-87
2024/03/24 01:59:02;;;;;;;;;;;;;;;;;;4946396;29;19902;-87
2024/03/24 02:01:28;;;;;;;;;;;;;;;;;;4944638;29;19922;-87
2024/03/24 02:03:53;;;;;;;;;;;;;;;;;;4954994;29;19918;-86
2024/03/24 02:06:19;;;;;;;;;;;;;;;;;;4943150;29;19996;-86
2024/03/24 02:08:45;;;;;;;;;;;;;;;;;;4959276;28;19910;-86
2024/03/24 02:11:11;;;;;;;;;;;;;;;;;;4947743;28;19929;-83
2024/03/24 02:13:37;;;;;;;;;;;;;;;;;;4940401;29;19915;-82
2024/03/24 02:16:04;;;;;;;;;;;;;;;;;;4948042;29;19935;-84
2024/03/24 02:18:29;;;;;;;;;;;;;;;;;;4933761;29;19970;-80
2024/03/24 02:20:55;;;;;;;;;;;;;;;;;;4942380;29;19997;-83
2024/03/24 02:23:22;;;;;;;;;;;;;;;;;;4938334;29;19911;-81
2024/03/24 02:25:47;;;;;;;;;;;;;;;;;;4939035;29;20501;-82
2024/03/24 02:28:14;;;;;;;;;;;;;;;;;;4933752;29;20094;-82
2024/03/24 02:30:40;;;;;;;;;;;;;;;;;;4933503;29;19921;-82
2024/03/24 02:33:06;;;;;;;;;;;;;;;;;;4934850;29;19907;-83
2024/03/24 02:35:32;;;;;;;;;;;;;;;;;;4936874;29;19910;-81
2024/03/24 02:37:58;;;;;;;;;;;;;;;;;;4940590;29;19969;-82
2024/03/24 02:40:24;;;;;;;;;;;;;;;;;;4933119;29;19994;-82
2024/03/24 02:42:50;;;;;;;;;;;;;;;;;;4935035;29;19962;-81
2024/03/24 02:45:16;;;;;;;;;;;;;;;;;;4934003;29;19929;-81
2024/03/24 02:47:42;;;;;;;;;;;;;;;;;;4929449;29;19961;-80
2024/03/24 02:50:09;;;;;;;;;;;;;;;;;;4916598;29;19961;-81
2024/03/24 02:52:34;;;;;;;;;;;;;;;;;;4918928;29;19911;-81
2024/03/24 02:55:00;;;;;;;;;;;;;;;;;;4934004;29;19921;-81
2024/03/24 02:57:26;;;;;;;;;;;;;;;;;;4930301;29;19969;-81
2024/03/24 02:59:52;;;;;;;;;;;;;;;;;;4934726;29;19906;-81
2024/03/24 03:02:18;;;;;;;;;;;;;;;;;;4931286;29;19959;-82
2024/03/24 03:04:44;;;;;;;;;;;;;;;;;;4936620;29;19956;-81
2024/03/24 03:07:10;;;;;;;;;;;;;;;;;;4938114;29;20357;-82
2024/03/24 03:09:36;;;;;;;;;;;;;;;;;;4933166;29;19958;-84
2024/03/24 03:12:02;;;;;;;;;;;;;;;;;;4936882;29;19914;-84
2024/03/24 03:14:28;;;;;;;;;;;;;;;;;;4938168;29;20331;-83
2024/03/24 03:16:54;;;;;;;;;;;;;;;;;;4939890;29;20263;-82
2024/03/24 03:19:20;;;;;;;;;;;;;;;;;;4939144;29;19969;-82
2024/03/24 03:21:46;;;;;;;;;;;;;;;;;;4918738;29;19958;-87
2024/03/24 03:24:12;;;;;;;;;;;;;;;;;;4937978;29;19910;-87
2024/03/24 03:26:38;;;;;;;;;;;;;;;;;;4927723;29;19915;-89
2024/03/24 03:29:04;;;;;;;;;;;;;;;;;;4938217;29;19910;-87
2024/03/24 03:31:30;;;;;;;;;;;;;;;;;;4915456;29;19954;-87
2024/03/24 03:33:56;;;;;;;;;;;;;;;;;;4940040;29;19911;-87
2024/03/24 03:36:22;;;;;;;;;;;;;;;;;;4938659;29;19990;-89
2024/03/24 03:38:48;;;;;;;;;;;;;;;;;;4939981;29;19911;-90
2024/03/24 03:41:13;;;;;;;;;;;;;;;;;;4920111;29;19918;-86
2024/03/24 03:43:39;;;;;;;;;;;;;;;;;;4940534;29;19914;-87
2024/03/24 03:46:06;;;;;;;;;;;;;;;;;;4938732;29;19918;-87
2024/03/24 03:48:31;;;;;;;;;;;;;;;;;;4935601;29;19949;-87
2024/03/24 03:50:57;;;;;;;;;;;;;;;;;;4942753;29;19938;-87
2024/03/24 03:53:25;;;;;;;;;;;;;;;;;;4939144;29;19917;-86
2024/03/24 03:55:51;;;;;;;;;;;;;;;;;;4948689;29;20315;-87
2024/03/24 03:58:17;;;;;;;;;;;;;;;;;;4938852;29;19927;-87
2024/03/24 04:00:43;;;;;;;;;;;;;;;;;;4938099;29;19993;-87
2024/03/24 04:03:09;;;;;;;;;;;;;;;;;;4923682;29;19916;-87
2024/03/24 04:05:36;;;;;;;;;;;;;;;;;;4946022;29;19911;-87
2024/03/24 04:08:02;;;;;;;;;;;;;;;;;;4921253;29;19993;-86
2024/03/24 04:10:28;;;;;;;;;;;;;;;;;;4938500;29;20407;-87
2024/03/24 04:12:54;;;;;;;;;;;;;;;;;;4944747;29;19913;-87
2024/03/24 04:15:20;;;;;;;;;;;;;;;;;;4935638;29;19929;-88
2024/03/24 04:17:46;;;;;;;;;;;;;;;;;;4937986;29;19953;-89
2024/03/24 04:20:12;;;;;;;;;;;;;;;;;;4936760;29;19930;-88
2024/03/24 04:22:40;;;;;;;;;;;;;;;;;;4926881;29;19914;-88
2024/03/24 04:25:06;;;;;;;;;;;;;;;;;;4937802;29;19915;-86
2024/03/24 04:27:32;;;;;;;;;;;;;;;;;;4935662;29;19914;-88
2024/03/24 04:29:58;;;;;;;;;;;;;;;;;;4935821;29;19922;-87
2024/03/24 04:32:25;;;;;;;;;;;;;;;;;;4927879;29;19910;-83
2024/03/24 04:34:51;;;;;;;;;;;;;;;;;;4919176;29;19993;-82
2024/03/24 04:37:17;;;;;;;;;;;;;;;;;;4934796;29;19933;-83
2024/03/24 04:39:43;;;;;;;;;;;;;;;;;;4936423;29;19910;-83
2024/03/24 04:42:09;;;;;;;;;;;;;;;;;;4934200;29;19954;-82
2024/03/24 04:44:35;;;;;;;;;;;;;;;;;;4940256;29;20352;-83
2024/03/24 04:47:01;;;;;;;;;;;;;;;;;;4936140;29;19957;-83
2024/03/24 04:49:27;;;;;;;;;;;;;;;;;;4941466;29;19966;-83
2024/03/24 04:51:53;;;;;;;;;;;;;;;;;;4935125;29;19910;-83
2024/03/24 04:54:19;;;;;;;;;;;;;;;;;;4919503;29;20305;-83
2024/03/24 04:56:47;;;;;;;;;;;;;;;;;;4933426;29;19915;-82
2024/03/24 04:59:13;;;;;;;;;;;;;;;;;;4937663;29;20371;-82
2024/03/24 05:01:39;;;;;;;;;;;;;;;;;;4931783;29;19986;-82
2024/03/24 05:04:05;;;;;;;;;;;;;;;;;;4936002;29;19957;-82
2024/03/24 05:06:31;;;;;;;;;;;;;;;;;;4934838;29;19945;-83
2024/03/24 05:08:57;;;;;;;;;;;;;;;;;;4943157;29;19926;-83
2024/03/24 05:11:24;;;;;;;;;;;;;;;;;;4936461;29;19961;-83
2024/03/24 05:13:50;;;;;;;;;;;;;;;;;;4936061;29;19911;-83
2024/03/24 05:16:17;;;;;;;;;;;;;;;;;;4934756;29;19965;-83
2024/03/24 05:18:43;;;;;;;;;;;;;;;;;;4934101;29;19926;-83
2024/03/24 05:21:09;;;;;;;;;;;;;;;;;;4935129;29;19961;-83
2024/03/24 05:23:35;;;;;;;;;;;;;;;;;;4934999;29;19906;-84
2024/03/24 05:26:00;;;;;;;;;;;;;;;;;;4933560;29;20484;-83
2024/03/24 05:28:26;;;;;;;;;;;;;;;;;;4932834;29;20000;-84
2024/03/24 05:30:52;;;;;;;;;;;;;;;;;;4930944;29;19961;-83
2024/03/24 05:33:18;;;;;;;;;;;;;;;;;;4918140;29;19911;-84
2024/03/24 05:35:45;;;;;;;;;;;;;;;;;;4929024;29;19919;-84
2024/03/24 05:38:10;;;;;;;;;;;;;;;;;;4904107;29;19922;-84
2024/03/24 05:40:36;;;;;;;;;;;;;;;;;;4932563;29;20005;-84
2024/03/24 05:43:02;;;;;;;;;;;;;;;;;;4934929;29;19910;-89
2024/03/24 05:45:28;;;;;;;;;;;;;;;;;;4936611;29;19942;-89
2024/03/24 05:47:54;;;;;;;;;;;;;;;;;;4930678;29;19911;-88
2024/03/24 05:50:20;;;;;;;;;;;;;;;;;;4935766;29;19914;-88
2024/03/24 05:52:46;;;;;;;;;;;;;;;;;;4935463;29;19914;-87
2024/03/24 05:55:15;;;;;;;;;;;;;;;;;;4916003;29;19911;-88
2024/03/24 05:57:41;;;;;;;;;;;;;;;;;;4930273;29;20267;-87
2024/03/24 06:00:07;;;;;;;;;;;;;;;;;;4935714;29;19918;-87
2024/03/24 06:02:34;;;;;;;;;;;;;;;;;;4929168;29;19936;-86
2024/03/24 06:04:59;;;;;;;;;;;;;;;;;;4920871;29;19907;-88
2024/03/24 06:07:25;;;;;;;;;;;;;;;;;;4932486;29;19934;-87
2024/03/24 06:09:52;;;;;;;;;;;;;;;;;;4932131;29;19906;-88
2024/03/24 06:12:18;;;;;;;;;;;;;;;;;;4925039;29;19921;-87
2024/03/24 06:14:45;;;;;;;;;;;;;;;;;;4935010;29;19911;-87
2024/03/24 06:17:11;;;;;;;;;;;;;;;;;;4919914;29;20364;-89
2024/03/24 06:19:37;;;;;;;;;;;;;;;;;;4936756;29;19922;-89
2024/03/24 06:22:06;;;;;;;;;;;;;;;;;;4936455;29;19998;-89
2024/03/24 06:24:32;;;;;;;;;;;;;;;;;;4936287;29;19973;-88
2024/03/24 06:26:58;;;;;;;;;;;;;;;;;;4918824;29;19918;-90
2024/03/24 06:29:23;;;;;;;;;;;;;;;;;;4936581;29;19934;-90
2024/03/24 06:31:49;;;;;;;;;;;;;;;;;;4916536;29;19915;-89
2024/03/24 06:34:16;;;;;;;;;;;;;;;;;;4935402;29;19915;-88
2024/03/24 06:36:42;;;;;;;;;;;;;;;;;;4928408;29;19919;-89
2024/03/24 06:39:08;;;;;;;;;;;;;;;;;;4927196;29;19907;-89
2024/03/24 06:41:43;;;;;;;;;;;;;;;;;;4932265;29;19914;-87
2024/03/24 06:44:13;;;;;;;;;;;;;;;;;;4935996;29;19915;-88
2024/03/24 06:46:39;;;;;;;;;;;;;;;;;;4940133;29;19978;-88
2024/03/24 06:49:05;;;;;;;;;;;;;;;;;;4944963;29;20434;-87
2024/03/24 06:51:31;;;;;;;;;;;;;;;;;;4941606;29;20367;-88
2024/03/24 06:53:57;;;;;;;;;;;;;;;;;;4939113;29;19914;-81
2024/03/24 06:56:23;;;;;;;;;;;;;;;;;;4947371;29;19919;-82
2024/03/24 06:58:48;;;;;;;;;;;;;;;;;;4937256;29;19931;-82
2024/03/24 07:01:14;;;;;;;;;;;;;;;;;;4910934;29;19911;-82
2024/03/24 07:03:40;;;;;;;;;;;;;;;;;;4930776;29;19943;-82
2024/03/24 07:06:06;;;;;;;;;;;;;;;;;;4931579;29;20016;-82
2024/03/24 07:08:32;;;;;;;;;;;;;;;;;;4932188;29;19954;-82
2024/03/24 07:10:58;;;;;;;;;;;;;;;;;;4926042;29;20382;-83
2024/03/24 07:13:24;;;;;;;;;;;;;;;;;;4910373;29;19965;-84
2024/03/24 07:15:50;;;;;;;;;;;;;;;;;;4934182;29;19938;-83
2024/03/24 07:18:16;;;;;;;;;;;;;;;;;;4916308;29;19954;-81
2024/03/24 07:20:42;;;;;;;;;;;;;;;;;;4924017;29;20371;-82
2024/03/24 07:23:08;;;;;;;;;;;;;;;;;;4930356;29;19954;-82
2024/03/24 07:25:34;;;;;;;;;;;;;;;;;;4925798;29;19969;-81
2024/03/24 07:28:00;;;;;;;;;;;;;;;;;;4929807;29;19961;-82
2024/03/24 07:30:26;;;;;;;;;;;;;;;;;;4932611;29;19993;-81
2024/03/24 07:32:52;;;;;;;;;;;;;;;;;;4928498;29;20005;-82
2024/03/24 07:35:18;;;;;;;;;;;;;;;;;;4919789;29;19969;-82
2024/03/24 07:37:44;;;;;;;;;;;;;;;;;;4934420;29;20012;-83
2024/03/24 07:40:10;;;;;;;;;;;;;;;;;;4928033;29;20352;-83
2024/03/24 07:42:36;;;;;;;;;;;;;;;;;;4932958;29;19950;-83
2024/03/24 07:45:02;;;;;;;;;;;;;;;;;;4934778;29;19942;-82
2024/03/24 07:47:28;;;;;;;;;;;;;;;;;;4936699;29;19962;-82
2024/03/24 07:49:54;;;;;;;;;;;;;;;;;;4936076;29;19993;-81
2024/03/24 07:52:20;;;;;;;;;;;;;;;;;;4934091;29;19968;-84
2024/03/24 07:54:46;;;;;;;;;;;;;;;;;;4934542;29;19999;-83
2024/03/24 07:57:12;;;;;;;;;;;;;;;;;;4931781;29;20469;-83
2024/03/24 07:59:38;;;;;;;;;;;;;;;;;;4939359;29;20370;-83
2024/03/24 08:02:04;;;;;;;;;;;;;;;;;;4936669;29;19954;-84
2024/03/24 08:04:30;;;;;;;;;;;;;;;;;;4935014;29;19953;-83
2024/03/24 08:06:56;;;;;;;;;;;;;;;;;;4933652;29;19949;-83
2024/03/24 08:09:22;;;;;;;;;;;;;;;;;;4936141;29;20022;-83
2024/03/24 08:11:48;;;;;;;;;;;;;;;;;;4938034;29;19958;-82
2024/03/24 08:14:13;;;;;;;;;;;;;;;;;;4938810;29;20378;-83
2024/03/24 08:16:40;;;;;;;;;;;;;;;;;;4923784;29;20368;-83
2024/03/24 08:19:05;;;;;;;;;;;;;;;;;;4933418;29;19922;-82
2024/03/24 08:21:32;;;;;;;;;;;;;;;;;;4928984;29;19997;-83
2024/03/24 08:23:58;;;;;;;;;;;;;;;;;;4938440;29;19919;-82
2024/03/24 08:26:24;;;;;;;;;;;;;;;;;;4926936;29;20038;-82
2024/03/24 08:28:49;;;;;;;;;;;;;;;;;;4938025;29;19980;-83
2024/03/24 08:31:15;;;;;;;;;;;;;;;;;;4938596;29;20398;-82
2024/03/24 08:33:41;;;;;;;;;;;;;;;;;;4937508;29;19974;-83
2024/03/24 08:36:07;;;;;;;;;;;;;;;;;;4933803;29;20004;-82
2024/03/24 08:38:33;;;;;;;;;;;;;;;;;;4930377;29;20275;-83
2024/03/24 08:41:01;;;;;;;;;;;;;;;;;;4927541;29;19911;-83
2024/03/24 08:43:27;;;;;;;;;;;;;;;;;;4922267;29;19914;-82
2024/03/24 08:45:52;;;;;;;;;;;;;;;;;;4923775;29;19921;-82
2024/03/24 08:48:18;;;;;;;;;;;;;;;;;;4935985;29;19997;-83
2024/03/24 08:50:44;;;;;;;;;;;;;;;;;;4934896;29;19910;-83
2024/03/24 08:53:11;;;;;;;;;;;;;;;;;;4928564;29;20662;-83
2024/03/24 08:55:37;;;;;;;;;;;;;;;;;;4914546;29;19910;-83
2024/03/24 08:58:03;;;;;;;;;;;;;;;;;;4927342;29;20431;-83
2024/03/24 09:00:28;;;;;;;;;;;;;;;;;;4932771;29;20449;-85
2024/03/24 09:02:55;;;;;;;;;;;;;;;;;;4936387;29;19915;-83
2024/03/24 09:05:20;;;;;;;;;;;;;;;;;;4924349;29;19911;-83
2024/03/24 09:07:47;;;;;;;;;;;;;;;;;;4941562;29;19921;-88
2024/03/24 09:10:13;;;;;;;;;;;;;;;;;;4941709;29;19961;-81
2024/03/24 09:12:39;;;;;;;;;;;;;;;;;;4946535;29;19906;-88
2024/03/24 09:15:05;;;;;;;;;;;;;;;;;;4926689;29;19914;-79
2024/03/24 09:17:31;;;;;;;;;;;;;;;;;;4937121;29;20287;-84
2024/03/24 09:19:56;;;;;;;;;;;;;;;;;;4936253;29;19922;-82
2024/03/24 09:22:22;;;;;;;;;;;;;;;;;;4924943;29;19911;-85
2024/03/24 09:24:49;;;;;;;;;;;;;;;;;;4945028;29;19927;-88
2024/03/24 09:27:15;;;;;;;;;;;;;;;;;;4928488;29;20368;-81
2024/03/24 09:29:41;;;;;;;;;;;;;;;;;;4909821;29;20009;-81
2024/03/24 09:32:08;;;;;;;;;;;;;;;;;;4931001;29;19957;-82
2024/03/24 09:34:34;;;;;;;;;;;;;;;;;;4935876;29;19953;-82
2024/03/24 09:37:00;;;;;;;;;;;;;;;;;;4935611;29;19922;-81
2024/03/24 09:39:26;;;;;;;;;;;;;;;;;;4925628;29;20278;-82
2024/03/24 09:41:53;;;;;;;;;;;;;;;;;;4935115;29;19913;-81
2024/03/24 09:44:19;;;;;;;;;;;;;;;;;;4936431;29;20378;-80
2024/03/24 09:46:45;;;;;;;;;;;;;;;;;;4927737;29;19994;-82
2024/03/24 09:49:11;;;;;;;;;;;;;;;;;;4938263;29;19911;-82
2024/03/24 09:51:37;;;;;;;;;;;;;;;;;;4921788;29;19915;-82
2024/03/24 09:54:03;;;;;;;;;;;;;;;;;;4936966;29;19914;-80
2024/03/24 09:56:29;;;;;;;;;;;;;;;;;;4940042;29;19914;-82
2024/03/24 09:58:55;;;;;;;;;;;;;;;;;;4939277;29;19955;-81
2024/03/24 10:01:21;;;;;;;;;;;;;;;;;;4939466;29;19911;-82
2024/03/24 10:03:47;;;;;;;;;;;;;;;;;;4940638;29;19907;-82
2024/03/24 10:06:13;;;;;;;;;;;;;;;;;;4922511;29;19913;-82
2024/03/24 10:08:39;;;;;;;;;;;;;;;;;;4938997;29;19921;-82
2024/03/24 10:11:06;;;;;;;;;;;;;;;;;;4941256;29;19997;-82
2024/03/24 10:13:32;;;;;;;;;;;;;;;;;;4939486;29;19914;-82
2024/03/24 10:15:58;;;;;;;;;;;;;;;;;;4936914;29;20326;-82
2024/03/24 10:18:24;;;;;;;;;;;;;;;;;;4936581;29;19974;-82
2024/03/24 10:20:50;;;;;;;;;;;;;;;;;;4927172;29;19911;-81
2024/03/24 10:23:16;;;;;;;;;;;;;;;;;;4929163;29;19911;-81
2024/03/24 10:25:42;;;;;;;;;;;;;;;;;;4939444;29;20430;-84
2024/03/24 10:28:09;;;;;;;;;;;;;;;;;;4939608;29;19911;-82
2024/03/24 10:30:35;;;;;;;;;;;;;;;;;;4932868;29;19907;-81
2024/03/24 10:33:01;;;;;;;;;;;;;;;;;;4919281;29;19911;-83
2024/03/24 10:35:27;;;;;;;;;;;;;;;;;;4929210;29;19997;-81
2024/03/24 10:37:53;;;;;;;;;;;;;;;;;;4920399;29;19929;-81
2024/03/24 10:40:19;;;;;;;;;;;;;;;;;;4937346;29;19919;-81
2024/03/24 10:42:46;;;;;;;;;;;;;;;;;;4934919;29;19975;-82
2024/03/24 10:45:14;;;;;;;;;;;;;;;;;;4936165;29;19911;-83
2024/03/24 10:47:40;;;;;;;;;;;;;;;;;;4938983;29;19970;-82
2024/03/24 10:50:06;;;;;;;;;;;;;;;;;;4939125;29;19994;-83
2024/03/24 10:52:32;;;;;;;;;;;;;;;;;;4934209;29;20267;-83
2024/03/24 10:54:58;;;;;;;;;;;;;;;;;;4933242;29;20259;-82
2024/03/24 10:57:24;;;;;;;;;;;;;;;;;;4934286;29;19914;-84
2024/03/24 10:59:50;;;;;;;;;;;;;;;;;;4934768;29;19912;-84
2024/03/24 11:02:20;;;;;;;;;;;;;;;;;;4928201;29;19935;-85
2024/03/24 11:04:46;;;;;;;;;;;;;;;;;;4933309;29;19921;-86
2024/03/24 11:07:12;;;;;;;;;;;;;;;;;;4916379;29;20061;-85
2024/03/24 11:09:38;;;;;;;;;;;;;;;;;;4934210;29;19918;-85
2024/03/24 11:12:05;;;;;;;;;;;;;;;;;;4913063;29;19911;-85
2024/03/24 11:14:31;;;;;;;;;;;;;;;;;;4929375;29;19907;-84
2024/03/24 11:16:57;;;;;;;;;;;;;;;;;;4928190;29;19919;-84
2024/03/24 11:19:23;;;;;;;;;;;;;;;;;;4932007;29;21373;-85
2024/03/24 11:21:49;;;;;;;;;;;;;;;;;;4933101;29;19922;-85
2024/03/24 11:24:15;;;;;;;;;;;;;;;;;;4932287;29;19953;-84
2024/03/24 11:26:41;;;;;;;;;;;;;;;;;;4934629;29;20055;-84
2024/03/24 11:29:07;;;;;;;;;;;;;;;;;;4923954;29;19976;-86
2024/03/24 11:31:33;;;;;;;;;;;;;;;;;;4926559;29;19946;-85
2024/03/24 11:33:59;;;;;;;;;;;;;;;;;;4947394;29;20038;-87
2024/03/24 11:36:25;;;;;;;;;;;;;;;;;;4957063;29;19927;-86
2024/03/24 11:38:54;;;;;;;;;;;;;;;;;;4959037;29;19944;-86
2024/03/24 11:41:20;;;;;;;;;;;;;;;;;;4937914;29;19926;-89
2024/03/24 11:43:46;;;;;;;;;;;;;;;;;;4938843;29;20090;-87
2024/03/24 11:46:12;;;;;;;;;;;;;;;;;;4957990;29;19914;-86
2024/03/24 11:48:41;;;;;;;;;;;;;;;;;;4956443;29;20540;-88
2024/03/24 11:51:07;;;;;;;;;;;;;;;;;;4953843;28;19939;-86
2024/03/24 11:53:33;;;;;;;;;;;;;;;;;;4957684;28;19918;-89
2024/03/24 11:55:59;;;;;;;;;;;;;;;;;;4954077;29;19974;-87
2024/03/24 11:58:25;;;;;;;;;;;;;;;;;;4949902;29;19911;-87
2024/03/24 12:00:51;;;;;;;;;;;;;;;;;;4955148;29;19923;-88
2024/03/24 12:03:17;;;;;;;;;;;;;;;;;;4959111;28;19914;-85
2024/03/24 12:05:43;;;;;;;;;;;;;;;;;;4956672;29;19899;-82
2024/03/24 12:08:09;;;;;;;;;;;;;;;;;;4955759;29;19925;-87
2024/03/24 12:10:35;;;;;;;;;;;;;;;;;;4941948;29;19918;-86
2024/03/24 12:13:01;;;;;;;;;;;;;;;;;;4940915;29;19957;-85
2024/03/24 12:15:27;;;;;;;;;;;;;;;;;;4939932;29;19934;-85
2024/03/24 12:17:53;;;;;;;;;;;;;;;;;;4938011;29;19923;-86
2024/03/24 12:20:19;;;;;;;;;;;;;;;;;;4934535;29;20061;-87
2024/03/24 12:22:45;;;;;;;;;;;;;;;;;;4932559;29;19966;-87
2024/03/24 12:25:11;;;;;;;;;;;;;;;;;;4935327;29;19915;-86
2024/03/24 12:27:37;;;;;;;;;;;;;;;;;;4936081;29;19910;-86
2024/03/24 12:30:05;;;;;;;;;;;;;;;;;;4936435;29;20397;-85
2024/03/24 12:32:31;;;;;;;;;;;;;;;;;;4936763;29;19918;-85
2024/03/24 12:34:57;;;;;;;;;;;;;;;;;;4941404;29;19946;-86
2024/03/24 12:37:26;;;;;;;;;;;;;;;;;;4937641;29;19930;-86
2024/03/24 12:39:52;;;;;;;;;;;;;;;;;;4919642;29;19911;-85
2024/03/24 12:42:18;;;;;;;;;;;;;;;;;;4936108;29;19920;-85
2024/03/24 12:44:43;;;;;;;;;;;;;;;;;;4916633;29;19914;-84
2024/03/24 12:47:09;;;;;;;;;;;;;;;;;;4920585;29;19915;-86
2024/03/24 12:49:38;;;;;;;;;;;;;;;;;;4935395;29;19911;-85
2024/03/24 12:52:04;;;;;;;;;;;;;;;;;;4918591;29;19911;-85
2024/03/24 12:54:31;;;;;;;;;;;;;;;;;;4918326;29;19970;-86
2024/03/24 12:57:00;;;;;;;;;;;;;;;;;;4934038;29;19926;-83
2024/03/24 12:59:26;;;;;;;;;;;;;;;;;;4936508;29;19913;-93
2024/03/24 13:01:52;;;;;;;;;;;;;;;;;;4918381;29;20016;-83
2024/03/24 13:04:18;;;;;;;;;;;;;;;;;;4918161;29;19943;-84
2024/03/24 13:06:44;;;;;;;;;;;;;;;;;;4931305;29;20001;-87
2024/03/24 13:09:10;;;;;;;;;;;;;;;;;;4936378;29;19965;-84
2024/03/24 13:11:36;;;;;;;;;;;;;;;;;;4937262;29;19915;-86
2024/03/24 13:14:04;;;;;;;;;;;;;;;;;;4918396;29;19957;-89
2024/03/24 13:16:30;;;;;;;;;;;;;;;;;;4935625;29;19919;-82
2024/03/24 13:18:57;;;;;;;;;;;;;;;;;;4940341;29;19915;-88
2024/03/24 13:21:23;;;;;;;;;;;;;;;;;;4937597;29;20359;-85
2024/03/24 13:23:49;;;;;;;;;;;;;;;;;;4938251;29;20346;-92
2024/03/24 13:26:15;;;;;;;;;;;;;;;;;;4936800;29;19952;-92
2024/03/24 13:28:41;;;;;;;;;;;;;;;;;;4936740;29;19942;-87
2024/03/24 13:31:07;;;;;;;;;;;;;;;;;;4935561;29;19957;-86
2024/03/24 13:33:33;;;;;;;;;;;;;;;;;;4923579;29;19910;-89
2024/03/24 13:36:01;;;;;;;;;;;;;;;;;;4924811;29;19966;-87
2024/03/24 13:38:27;;;;;;;;;;;;;;;;;;4933461;29;20375;-88
2024/03/24 13:40:56;;;;;;;;;;;;;;;;;;4937423;29;19911;-88
2024/03/24 13:43:22;;;;;;;;;;;;;;;;;;4937048;29;19962;-88
2024/03/24 13:45:48;;;;;;;;;;;;;;;;;;4936924;29;19983;-90
2024/03/24 13:48:14;;;;;;;;;;;;;;;;;;4936086;29;20355;-88
2024/03/24 13:50:39;;;;;;;;;;;;;;;;;;4932893;29;20366;-88
2024/03/24 13:53:05;;;;;;;;;;;;;;;;;;4932863;29;19918;-89
2024/03/24 13:55:31;;;;;;;;;;;;;;;;;;4932562;29;19914;-88
2024/03/24 13:57:57;;;;;;;;;;;;;;;;;;4934935;29;19958;-88
2024/03/24 14:00:23;;;;;;;;;;;;;;;;;;4929059;29;19915;-87
2024/03/24 14:02:57;;;;;;;;;;;;;;;;;;4931443;29;20408;-88
2024/03/24 14:05:23;;;;;;;;;;;;;;;;;;4930297;29;19911;-88
2024/03/24 14:07:51;;;;;;;;;;;;;;;;;;4928259;29;19915;-88
2024/03/24 14:10:19;;;;;;;;;;;;;;;;;;4935141;29;19997;-89
2024/03/24 14:12:45;;;;;;;;;;;;;;;;;;4935720;29;19914;-88
2024/03/24 14:15:11;;;;;;;;;;;;;;;;;;4916647;29;20434;-87
2024/03/24 14:17:37;;;;;;;;;;;;;;;;;;4931356;29;19914;-88
2024/03/24 14:20:06;;;;;;;;;;;;;;;;;;4935236;29;20282;-89
2024/03/24 14:22:32;;;;;;;;;;;;;;;;;;4907755;29;19974;-88
2024/03/24 14:24:58;;;;;;;;;;;;;;;;;;4928486;29;20378;-89
2024/03/24 14:27:24;;;;;;;;;;;;;;;;;;4926642;29;20009;-88
2024/03/24 14:29:50;;;;;;;;;;;;;;;;;;4903461;29;19983;-89
2024/03/24 14:32:16;;;;;;;;;;;;;;;;;;4923716;29;20340;-88
2024/03/24 14:34:42;;;;;;;;;;;;;;;;;;4921195;29;19966;-88
2024/03/24 14:37:08;;;;;;;;;;;;;;;;;;4924526;29;20453;-88
2024/03/24 14:39:34;;;;;;;;;;;;;;;;;;4931906;29;20339;-88
2024/03/24 14:42:00;;;;;;;;;;;;;;;;;;4927815;29;20298;-87
2024/03/24 14:44:26;;;;;;;;;;;;;;;;;;4926919;29;19919;-88
2024/03/24 14:46:55;;;;;;;;;;;;;;;;;;4921828;29;20438;-88
2024/03/24 14:49:21;;;;;;;;;;;;;;;;;;4931205;29;19911;-88
2024/03/24 14:51:47;;;;;;;;;;;;;;;;;;4927916;29;19918;-88
2024/03/24 14:54:13;;;;;;;;;;;;;;;;;;4932883;29;19911;-88
2024/03/24 14:56:41;;;;;;;;;;;;;;;;;;4910634;29;19965;-89
2024/03/24 14:59:06;;;;;;;;;;;;;;;;;;4928010;29;20013;-87
2024/03/24 15:01:32;;;;;;;;;;;;;;;;;;4932048;29;20001;-87
2024/03/24 15:03:59;;;;;;;;;;;;;;;;;;4935293;29;19958;-85
2024/03/24 15:06:25;;;;;;;;;;;;;;;;;;4919447;29;20458;-84
2024/03/24 15:08:51;;;;;;;;;;;;;;;;;;4923941;29;19911;-84
2024/03/24 15:11:18;;;;;;;;;;;;;;;;;;4922272;29;20372;-85
2024/03/24 15:13:44;;;;;;;;;;;;;;;;;;4936145;29;20013;-83
2024/03/24 15:16:10;;;;;;;;;;;;;;;;;;4936372;29;20061;-86
2024/03/24 15:18:36;;;;;;;;;;;;;;;;;;4930392;29;19918;-84
2024/03/24 15:21:02;;;;;;;;;;;;;;;;;;4918702;29;19970;-85
2024/03/24 15:23:28;;;;;;;;;;;;;;;;;;4928581;29;19942;-85
2024/03/24 15:25:54;;;;;;;;;;;;;;;;;;4932820;29;19954;-84
2024/03/24 15:28:20;;;;;;;;;;;;;;;;;;4924795;29;19954;-84
2024/03/24 15:30:46;;;;;;;;;;;;;;;;;;4928425;29;20067;-85
2024/03/24 15:33:12;;;;;;;;;;;;;;;;;;4916025;29;19957;-86
2024/03/24 15:35:40;;;;;;;;;;;;;;;;;;4930179;29;19949;-85
2024/03/24 15:38:05;;;;;;;;;;;;;;;;;;4934891;29;19954;-84
2024/03/24 15:40:33;;;;;;;;;;;;;;;;;;4934265;29;19977;-85
2024/03/24 15:42:59;;;;;;;;;;;;;;;;;;4931091;29;19910;-84
2024/03/24 15:45:25;;;;;;;;;;;;;;;;;;4925712;29;20013;-86
2024/03/24 15:47:51;;;;;;;;;;;;;;;;;;4923693;29;19935;-85
2024/03/24 15:50:17;;;;;;;;;;;;;;;;;;4920329;29;19950;-84
2024/03/24 15:52:43;;;;;;;;;;;;;;;;;;4923515;29;19962;-84
2024/03/24 15:55:09;;;;;;;;;;;;;;;;;;4928037;29;19990;-85
2024/03/24 15:57:36;;;;;;;;;;;;;;;;;;4904353;29;19968;-84
2024/03/24 16:00:02;;;;;;;;;;;;;;;;;;4928874;29;19937;-84
2024/03/24 16:02:28;;;;;;;;;;;;;;;;;;4934560;29;20013;-85
2024/03/24 16:04:54;;;;;;;;;;;;;;;;;;4928043;29;19949;-83
2024/03/24 16:07:20;;;;;;;;;;;;;;;;;;4931634;29;19965;-83
2024/03/24 16:09:46;;;;;;;;;;;;;;;;;;4932303;29;19992;-85
2024/03/24 16:12:12;;;;;;;;;;;;;;;;;;4925360;29;19914;-82
2024/03/24 16:14:38;;;;;;;;;;;;;;;;;;4924257;29;20387;-87
2024/03/24 16:17:04;;;;;;;;;;;;;;;;;;4926420;29;20008;-88
2024/03/24 16:19:30;;;;;;;;;;;;;;;;;;4914077;29;20002;-88
2024/03/24 16:21:56;;;;;;;;;;;;;;;;;;4915550;29;19938;-88
2024/03/24 16:24:22;;;;;;;;;;;;;;;;;;4924678;29;19973;-87
2024/03/24 16:26:48;;;;;;;;;;;;;;;;;;4919640;29;19947;-87
2024/03/24 16:29:14;;;;;;;;;;;;;;;;;;4900735;29;19911;-86
2024/03/24 16:31:40;;;;;;;;;;;;;;;;;;4914736;29;19917;-87
2024/03/24 16:34:06;;;;;;;;;;;;;;;;;;4917943;29;19998;-87
2024/03/24 16:36:33;;;;;;;;;;;;;;;;;;4918230;29;19938;-89
2024/03/24 16:38:59;;;;;;;;;;;;;;;;;;4916057;29;19950;-87